Time;durP1;ratioP1;P1;durP2;ratioP2;P2;SDS_P1;SDS_P2;PMS_P1;PMS_P2;Temp;Humidity;BMP_temperature;BMP_pressure;BME280_temperature;BME280_humidity;BME280_pressure;Samples;Min_cycle;Max_cycle;Signal;HPM_P1;HPM_P2
2023/08/02 00:00:13;;;;;;;5.57;1.40;;;;;;;-145.69;67.70;52060.22;5095848;28;20202;-83
2023/08/02 00:02:40;;;;;;;1.55;1.25;;;;;;;-145.69;68.38;52064.16;5096605;28;20229;-84
2023/08/02 00:05:07;;;;;;;6.20;1.60;;;;;;;-145.69;68.66;52076.03;5094467;28;20651;-83
2023/08/02 00:07:35;;;;;;;5.10;1.85;;;;;;;-145.69;68.00;52076.03;5095490;28;20221;-83
2023/08/02 00:10:03;;;;;;;4.10;1.80;;;;;;;-145.69;69.00;52091.88;5095508;28;20232;-84
2023/08/02 00:12:29;;;;;;;3.03;1.53;;;;;;;-145.69;69.22;52062.19;5098377;28;20740;-83
2023/08/02 00:14:56;;;;;;;2.87;1.80;;;;;;;-145.69;69.07;52087.94;5096944;28;20229;-84
2023/08/02 00:17:25;;;;;;;2.60;1.63;;;;;;;-145.69;69.54;52064.16;5098916;28;20576;-83
2023/08/02 00:19:52;;;;;;;3.27;1.80;;;;;;;-145.69;69.40;52070.09;5096576;28;20289;-83
2023/08/02 00:22:18;;;;;;;3.08;1.45;;;;;;;-145.69;68.69;52060.22;5095909;28;20232;-83
2023/08/02 00:24:48;;;;;;;7.95;2.10;;;;;;;-145.69;68.82;52064.16;5096139;28;20209;-83
2023/08/02 00:27:15;;;;;;;2.50;1.70;;;;;;;-145.69;69.17;52076.03;5096137;28;20205;-83
2023/08/02 00:29:44;;;;;;;3.58;1.33;;;;;;;-145.69;69.85;52074.06;5096166;28;20202;-83
2023/08/02 00:32:10;;;;;;;6.65;1.80;;;;;;;-145.69;68.65;52080.00;5095498;28;20714;-83
2023/08/02 00:34:40;;;;;;;2.95;1.60;;;;;;;-145.69;68.87;52103.78;5095992;28;20609;-83
2023/08/02 00:37:06;;;;;;;5.55;1.63;;;;;;;-145.69;68.94;52083.97;5096294;28;20289;-83
2023/08/02 00:39:34;;;;;;;3.35;1.65;;;;;;;-145.69;69.48;52072.09;5096230;28;20289;-83
2023/08/02 00:42:02;;;;;;;2.83;1.55;;;;;;;-145.69;69.05;52091.88;5095573;28;20727;-84
2023/08/02 00:44:31;;;;;;;3.78;1.90;;;;;;;-145.69;69.40;52105.75;5095766;28;20206;-83
2023/08/02 00:46:59;;;;;;;4.80;2.05;;;;;;;-145.69;69.53;52072.09;5095556;28;20209;-84
2023/08/02 00:49:28;;;;;;;4.18;1.80;;;;;;;-145.69;69.18;52038.44;5098135;28;20194;-83
2023/08/02 00:51:54;;;;;;;4.68;1.50;;;;;;;-145.69;69.01;52115.66;5096891;28;20198;-82
2023/08/02 00:54:21;;;;;;;2.40;1.58;;;;;;;-145.69;69.34;52087.94;5095506;28;20213;-81
2023/08/02 00:56:48;;;;;;;3.17;1.70;;;;;;;-145.69;69.79;52080.00;5095193;28;20205;-83
2023/08/02 00:59:16;;;;;;;3.97;1.47;;;;;;;-145.69;70.90;52078.03;5094856;28;20206;-82
2023/08/02 01:01:47;;;;;;;5.60;1.90;;;;;;;-145.69;70.28;52074.06;5094587;28;20675;-83
2023/08/02 01:04:15;;;;;;;5.00;1.83;;;;;;;-145.69;70.77;52072.09;5092793;28;20198;-83
2023/08/02 01:06:45;;;;;;;4.43;1.90;;;;;;;-145.69;70.41;52087.94;5095955;28;20198;-84
2023/08/02 01:09:20;;;;;;;3.53;1.83;;;;;;;-145.69;70.29;52082.00;5095388;28;20534;-83
2023/08/02 01:11:55;;;;;;;5.80;2.50;;;;;;;-145.69;71.32;52107.72;5094985;28;20198;-84
2023/08/02 01:14:29;;;;;;;6.80;2.17;;;;;;;-145.69;71.45;52064.16;5093340;28;20658;-82
2023/08/02 01:16:56;;;;;;;4.87;2.00;;;;;;;-145.69;71.30;52127.53;5092993;28;20664;-83
2023/08/02 01:19:23;;;;;;;5.33;1.73;;;;;;;-145.69;71.83;52080.00;5095163;28;20194;-83
2023/08/02 01:21:53;;;;;;;7.22;1.85;;;;;;;-145.69;71.42;52095.84;5096452;28;20233;-83
2023/08/02 01:24:28;;;;;;;3.87;1.80;;;;;;;-145.69;71.68;52078.03;5093942;28;20213;-82
2023/08/02 01:26:55;;;;;;;7.93;2.13;;;;;;;-145.69;72.12;52101.78;5094314;28;20659;-83
2023/08/02 01:29:25;;;;;;;5.13;1.90;;;;;;;-145.69;72.66;52087.94;5093260;28;20198;-83
2023/08/02 01:31:53;;;;;;;7.40;2.17;;;;;;;-145.69;72.84;52103.78;5093592;28;20206;-83
2023/08/02 01:34:20;;;;;;;5.83;1.90;;;;;;;-145.69;72.56;52095.84;5094025;28;20202;-83
2023/08/02 01:36:46;;;;;;;10.47;1.80;;;;;;;-145.69;72.44;52115.66;5093947;28;20672;-82
2023/08/02 01:39:17;;;;;;;5.97;1.67;;;;;;;-145.69;72.61;52087.94;5093939;28;20209;-83
2023/08/02 01:41:44;;;;;;;7.80;2.20;;;;;;;-145.69;72.29;52083.97;5095581;28;20196;-82
2023/08/02 01:44:16;;;;;;;4.93;2.20;;;;;;;-145.69;71.93;52074.06;5093934;28;20201;-83
2023/08/02 01:46:44;;;;;;;3.83;1.60;;;;;;;-145.69;72.53;52072.09;5093867;28;20194;-82
2023/08/02 01:49:13;;;;;;;3.87;2.17;;;;;;;-145.69;72.22;52109.72;5093582;28;20744;-82
2023/08/02 01:51:40;;;;;;;8.50;1.73;;;;;;;-145.69;72.05;52044.38;5093621;28;20289;-83
2023/08/02 01:54:06;;;;;;;6.53;2.07;;;;;;;-145.69;72.74;52064.16;5094204;28;20525;-83
2023/08/02 01:56:34;;;;;;;6.87;2.30;;;;;;;-145.69;72.69;52083.97;5096448;28;20288;-83
2023/08/02 01:59:02;;;;;;;9.03;2.17;;;;;;;-145.69;71.83;52064.16;5096679;28;20335;-83
2023/08/02 02:01:28;;;;;;;5.40;2.10;;;;;;;-145.69;71.82;52111.69;5095184;28;20201;-83
2023/08/02 02:03:55;;;;;;;5.63;1.80;;;;;;;-145.69;71.87;52111.69;5094799;28;20226;-83
2023/08/02 02:06:21;;;;;;;6.47;1.80;;;;;;;-145.69;72.50;52117.63;5092539;28;20202;-82
2023/08/02 02:08:48;;;;;;;4.93;2.23;;;;;;;-145.69;71.82;52082.00;5092234;28;20198;-83
2023/08/02 02:11:14;;;;;;;6.80;1.77;;;;;;;-145.69;71.45;52105.75;5093193;28;20293;-82
2023/08/02 02:13:45;;;;;;;3.63;1.93;;;;;;;-145.69;71.59;52074.06;5093963;28;20251;-82
2023/08/02 02:16:14;;;;;;;3.50;1.90;;;;;;;-145.69;71.47;52095.84;5092329;28;20234;-82
2023/08/02 02:18:44;;;;;;;3.00;1.83;;;;;;;-145.69;72.02;52107.72;5093556;28;20202;-83
2023/08/02 02:21:10;;;;;;;4.20;2.00;;;;;;;-145.69;71.62;52091.88;5092936;28;20221;-81
2023/08/02 02:23:38;;;;;;;3.50;2.00;;;;;;;-145.69;71.53;52089.91;5093612;28;20716;-80
2023/08/02 02:26:05;;;;;;;9.13;2.10;;;;;;;-145.69;70.38;52083.97;5093698;28;20195;-82
2023/08/02 02:28:31;;;;;;;5.97;1.93;;;;;;;-145.69;69.92;52050.31;5093044;28;20293;-82
2023/08/02 02:30:59;;;;;;;8.40;2.10;;;;;;;-145.69;69.03;52091.88;5093427;28;20553;-82
2023/08/02 02:33:26;;;;;;;3.53;1.65;;;;;;;-145.69;69.34;52078.03;5095857;28;20603;-83
2023/08/02 02:35:52;;;;;;;3.55;1.98;;;;;;;-145.69;68.62;52070.09;5092783;28;20197;-83
2023/08/02 02:38:18;;;;;;;4.63;2.10;;;;;;;-145.69;67.84;52087.94;5092971;28;20198;-83
2023/08/02 02:40:46;;;;;;;3.55;1.90;;;;;;;-145.69;68.14;52054.25;5093234;28;20194;-83
2023/08/02 02:43:13;;;;;;;4.55;2.10;;;;;;;-145.69;67.60;52068.13;5094329;28;20681;-82
2023/08/02 02:45:40;;;;;;;6.13;1.80;;;;;;;-145.69;67.34;52083.97;5092785;28;20198;-82
2023/08/02 02:48:08;;;;;;;3.53;2.00;;;;;;;-145.69;65.63;52044.38;5093502;28;20195;-82
2023/08/02 02:50:34;;;;;;;4.22;2.00;;;;;;;-145.69;65.04;52052.28;5092773;28;20199;-82
2023/08/02 02:53:03;;;;;;;4.90;2.10;;;;;;;-145.69;65.26;52066.16;5093253;28;20205;-82
2023/08/02 02:55:29;;;;;;;5.22;1.98;;;;;;;-145.69;64.58;52032.47;5095518;28;20683;-83
2023/08/02 02:57:58;;;;;;;3.88;2.00;;;;;;;-145.69;63.97;52056.25;5089952;28;20305;-83
2023/08/02 03:00:27;;;;;;;2.80;1.77;;;;;;;-145.69;63.59;52048.31;5092083;28;20247;-82
2023/08/02 03:02:54;;;;;;;4.03;1.88;;;;;;;-145.69;64.11;52028.53;5091910;28;20257;-82
2023/08/02 03:05:22;;;;;;;5.03;2.00;;;;;;;-145.69;63.71;52026.53;5092480;28;20205;-83
2023/08/02 03:07:48;;;;;;;2.80;1.95;;;;;;;-145.69;63.57;52034.47;5093024;28;20198;-82
2023/08/02 03:10:15;;;;;;;4.97;1.60;;;;;;;-145.69;63.04;52070.09;5093961;28;20199;-82
2023/08/02 03:12:44;;;;;;;4.70;1.80;;;;;;;-145.69;63.11;52016.66;5092781;28;20671;-83
2023/08/02 03:15:11;;;;;;;4.22;1.90;;;;;;;-145.69;62.76;52030.50;5091607;28;20247;-83
2023/08/02 03:17:37;;;;;;;3.42;1.73;;;;;;;-145.69;63.12;52026.53;5092561;28;20213;-82
2023/08/02 03:20:05;;;;;;;3.80;1.67;;;;;;;-145.69;64.08;52044.38;5091295;28;20429;-82
2023/08/02 03:22:35;;;;;;;5.43;2.25;;;;;;;-145.69;61.94;52062.19;5094262;28;20271;-83
2023/08/02 03:25:01;;;;;;;3.97;1.70;;;;;;;-145.69;62.31;52030.50;5094857;28;20548;-82
2023/08/02 03:27:28;;;;;;;2.55;1.67;;;;;;;-145.69;61.62;52024.56;5092472;28;20205;-82
2023/08/02 03:29:56;;;;;;;3.90;1.60;;;;;;;-145.69;62.87;52050.31;5093300;28;20194;-84
2023/08/02 03:32:22;;;;;;;3.35;1.90;;;;;;;-145.69;62.15;52034.47;5093070;28;20236;-82
2023/08/02 03:34:49;;;;;;;4.15;1.80;;;;;;;-145.69;62.59;52044.38;5092358;28;20285;-83
2023/08/02 03:37:18;;;;;;;2.83;1.80;;;;;;;-145.69;61.94;52018.63;5092257;28;20198;-81
2023/08/02 03:39:46;;;;;;;4.38;1.63;;;;;;;-145.69;61.81;52026.53;5093931;28;20206;-83
2023/08/02 03:42:12;;;;;;;2.33;1.80;;;;;;;-145.69;62.53;52034.47;5095608;28;20225;-82
2023/08/02 03:44:39;;;;;;;4.13;2.13;;;;;;;-145.69;61.94;52038.44;5095830;28;20290;-82
2023/08/02 03:47:08;;;;;;;3.55;1.73;;;;;;;-145.69;61.94;52030.50;5095939;28;20225;-82
2023/08/02 03:49:36;;;;;;;4.47;1.77;;;;;;;-145.69;62.38;52044.38;5095746;28;20664;-83
2023/08/02 03:52:06;;;;;;;5.82;2.00;;;;;;;-145.69;62.62;52040.41;5095836;28;20204;-82
2023/08/02 03:54:33;;;;;;;5.40;1.70;;;;;;;-145.69;63.80;52028.53;5096012;28;20267;-82
2023/08/02 03:57:01;;;;;;;6.47;1.70;;;;;;;-145.69;63.54;52054.25;5095749;28;20229;-82
2023/08/02 03:59:27;;;;;;;4.80;1.80;;;;;;;-145.69;64.20;52060.22;5094866;28;20201;-82
2023/08/02 04:01:54;;;;;;;3.85;1.90;;;;;;;-145.69;64.75;52054.25;5095423;28;20548;-83
2023/08/02 04:04:26;;;;;;;7.88;1.67;;;;;;;-145.69;65.73;52068.13;5094943;28;20233;-83
2023/08/02 04:06:52;;;;;;;4.20;2.05;;;;;;;-145.69;65.81;52044.38;5095607;28;20556;-82
2023/08/02 04:09:24;;;;;;;3.90;1.65;;;;;;;-145.69;66.01;52040.41;5094059;28;20289;-81
2023/08/02 04:11:51;;;;;;;3.38;2.03;;;;;;;-145.69;65.72;52072.09;5094402;28;20202;-83
2023/08/02 04:14:19;;;;;;;3.60;2.05;;;;;;;-145.69;65.57;52062.19;5094910;28;20198;-83
2023/08/02 04:16:48;;;;;;;4.10;2.13;;;;;;;-145.69;66.33;52062.19;5096069;28;20608;-83
2023/08/02 04:19:17;;;;;;;6.20;2.00;;;;;;;-145.69;66.60;52048.31;5096511;28;20205;-83
2023/08/02 04:21:48;;;;;;;5.35;2.15;;;;;;;-145.69;66.26;52040.41;5095010;28;20198;-81
2023/08/02 04:24:15;;;;;;;3.83;2.20;;;;;;;-145.69;67.13;52032.47;5095715;28;20226;-82
2023/08/02 04:26:41;;;;;;;4.88;2.17;;;;;;;-145.69;66.78;52016.66;5095205;28;20202;-81
2023/08/02 04:29:07;;;;;;;4.97;2.30;;;;;;;-145.69;67.05;52060.22;5095235;28;20293;-84
2023/08/02 04:31:38;;;;;;;3.78;2.33;;;;;;;-145.69;66.50;52034.47;5094235;28;20203;-82
2023/08/02 04:34:07;;;;;;;3.85;2.67;;;;;;;-145.69;66.78;52060.22;5094397;28;20220;-82
2023/08/02 04:36:34;;;;;;;7.72;2.28;;;;;;;-145.69;67.35;52056.25;5096037;28;20201;-83
2023/08/02 04:41:41;;;;;;;4.53;2.33;;;;;;;-145.69;66.48;52050.31;5092819;28;20208;-83
2023/08/02 04:44:07;;;;;;;5.35;2.63;;;;;;;-145.69;66.71;52093.88;5096738;28;20857;-84
2023/08/02 04:46:36;;;;;;;5.60;2.42;;;;;;;-145.69;65.93;52054.25;5096180;28;20522;-84
2023/08/02 04:49:03;;;;;;;4.22;2.20;;;;;;;-145.69;66.63;52056.25;5096377;28;20209;-83
2023/08/02 04:51:36;;;;;;;4.35;2.33;;;;;;;-145.69;65.41;52004.75;5094190;28;20675;-83
2023/08/02 04:54:03;;;;;;;4.25;2.40;;;;;;;-145.69;66.34;52026.53;5094847;28;20286;-85
2023/08/02 04:56:29;;;;;;;4.38;2.60;;;;;;;-145.69;66.37;52032.47;5075435;28;20202;-83
2023/08/02 04:58:56;;;;;;;6.32;2.55;;;;;;;-145.69;66.37;52064.16;5075011;28;20199;-84
2023/08/02 05:01:22;;;;;;;7.30;2.45;;;;;;;-145.69;67.77;52082.00;5084301;28;20202;-83
2023/08/02 05:03:53;;;;;;;4.35;2.67;;;;;;;-145.69;66.05;52040.41;5094080;28;20218;-82
2023/08/02 05:06:20;;;;;;;5.63;2.72;;;;;;;-145.69;66.49;52024.56;5095338;28;20226;-82
2023/08/02 05:08:46;;;;;;;4.72;2.40;;;;;;;-145.69;66.25;52068.13;5094764;28;20225;-82
2023/08/02 05:11:13;;;;;;;5.75;2.85;;;;;;;-145.69;66.50;52052.28;5094212;28;20205;-83
2023/08/02 05:13:39;;;;;;;7.30;3.03;;;;;;;-145.69;66.15;52032.47;5096334;28;20240;-82
2023/08/02 05:16:12;;;;;;;4.22;2.67;;;;;;;-145.69;65.18;52030.50;5095072;28;20238;-83
2023/08/02 05:18:39;;;;;;;6.55;3.22;;;;;;;-145.69;67.07;52036.44;5094266;28;20198;-84
2023/08/02 05:21:12;;;;;;;5.45;3.00;;;;;;;-145.69;67.09;52048.31;5095024;28;20198;-82
2023/08/02 05:23:41;;;;;;;4.90;3.17;;;;;;;-145.69;66.75;52062.19;5094539;28;20230;-83
2023/08/02 05:26:08;;;;;;;6.32;3.20;;;;;;;-145.69;66.90;52068.13;5094419;28;20206;-83
2023/08/02 05:28:38;;;;;;;6.18;2.75;;;;;;;-145.69;66.92;52056.25;5095238;28;20204;-84
2023/08/02 05:31:10;;;;;;;7.03;3.25;;;;;;;-145.69;66.36;52036.44;5094143;28;20202;-81
2023/08/02 05:33:36;;;;;;;7.50;3.60;;;;;;;-145.69;67.60;52046.34;5094132;28;20691;-82
2023/08/02 05:36:03;;;;;;;5.55;3.22;;;;;;;-145.69;66.62;52044.38;5095348;28;20221;-82
2023/08/02 05:38:31;;;;;;;6.07;3.72;;;;;;;-145.69;66.74;52046.34;5095252;28;20206;-82
2023/08/02 05:41:01;;;;;;;9.27;3.80;;;;;;;-145.69;66.49;52028.53;5094455;28;20198;-82
2023/08/02 05:43:28;;;;;;;10.95;4.07;;;;;;;-145.69;66.68;52068.13;5093531;28;20698;-81
2023/08/02 05:45:54;;;;;;;10.63;4.75;;;;;;;-145.69;66.90;52040.41;5093681;28;20198;-83
2023/08/02 05:48:23;;;;;;;5.57;3.80;;;;;;;-145.69;66.38;52062.19;5093357;28;20652;-82
2023/08/02 05:50:49;;;;;;;6.35;3.95;;;;;;;-145.69;66.44;52050.31;5093903;28;20197;-83
2023/08/02 05:53:16;;;;;;;7.47;4.28;;;;;;;-145.69;65.89;52006.75;5094122;28;20297;-81
2023/08/02 05:55:44;;;;;;;8.43;4.50;;;;;;;-145.69;65.82;52028.53;5093482;28;20225;-82
2023/08/02 05:58:12;;;;;;;6.70;3.58;;;;;;;-145.69;65.61;52038.44;5093303;28;20202;-83
2023/08/02 06:00:44;;;;;;;7.15;3.53;;;;;;;-145.69;65.81;52032.47;5092873;28;20198;-82
2023/08/02 06:03:11;;;;;;;8.27;3.53;;;;;;;-145.69;65.21;52044.38;5092588;28;20226;-81
2023/08/02 06:05:37;;;;;;;6.93;4.05;;;;;;;-145.69;65.74;52034.47;5093047;28;20215;-82
2023/08/02 06:08:04;;;;;;;6.63;3.63;;;;;;;-145.69;64.57;52024.56;5093872;28;20198;-81
2023/08/02 06:10:31;;;;;;;8.52;3.65;;;;;;;-145.69;65.28;52004.75;5092433;28;20198;-84
2023/08/02 06:12:59;;;;;;;6.13;3.30;;;;;;;-145.69;64.76;52010.69;5087912;28;20198;-81
2023/08/02 06:15:25;;;;;;;6.70;3.63;;;;;;;-145.69;64.11;52044.38;5091753;28;20230;-82
2023/08/02 06:17:52;;;;;;;6.78;3.33;;;;;;;-145.69;64.34;52008.72;5092380;28;20210;-82
2023/08/02 06:20:19;;;;;;;6.15;3.55;;;;;;;-145.69;62.87;52046.34;5093416;28;20296;-83
2023/08/02 06:22:45;;;;;;;6.15;3.22;;;;;;;-145.69;62.52;52030.50;5093353;28;20205;-82
2023/08/02 06:25:12;;;;;;;7.10;3.50;;;;;;;-145.69;63.61;52036.44;5093108;28;20221;-81
2023/08/02 06:27:42;;;;;;;7.07;3.47;;;;;;;-145.69;63.36;51990.91;5092921;28;20198;-83
2023/08/02 06:30:11;;;;;;;5.03;3.15;;;;;;;-145.69;63.22;52000.81;5092412;28;20202;-81
2023/08/02 06:32:40;;;;;;;6.70;3.05;;;;;;;-145.69;63.54;52030.50;5092087;28;20233;-82
2023/08/02 06:35:09;;;;;;;6.63;3.35;;;;;;;-145.69;64.39;52030.50;5073125;28;20561;-82
2023/08/02 06:37:38;;;;;;;6.65;3.13;;;;;;;-145.69;64.93;52018.63;5091945;28;20720;-82
2023/08/02 06:40:08;;;;;;;4.72;2.80;;;;;;;-145.69;64.96;52024.56;5091058;28;20204;-81
2023/08/02 06:42:38;;;;;;;5.85;2.85;;;;;;;-145.69;65.61;52014.66;5092046;28;20204;-82
2023/08/02 06:45:07;;;;;;;7.20;3.30;;;;;;;-145.69;64.16;52040.41;5091817;28;20225;-80
2023/08/02 06:47:35;;;;;;;7.47;2.72;;;;;;;-145.69;65.58;52022.59;5092267;28;20247;-81
2023/08/02 06:50:06;;;;;;;4.38;2.70;;;;;;;-145.69;65.26;52020.59;5091180;28;20209;-82
2023/08/02 06:52:35;;;;;;;3.90;2.50;;;;;;;-145.69;65.31;52030.50;5092399;28;20198;-82
2023/08/02 06:55:03;;;;;;;3.67;2.53;;;;;;;-145.69;65.26;52010.69;5091770;28;20198;-82
2023/08/02 06:57:33;;;;;;;6.45;3.03;;;;;;;-145.69;65.98;52036.44;5082573;28;20199;-82
2023/08/02 07:00:01;;;;;;;3.78;2.10;;;;;;;-145.69;65.64;52002.78;5071976;28;20217;-84
2023/08/02 07:02:27;;;;;;;4.50;2.58;;;;;;;-145.69;65.29;52026.53;5078682;28;20672;-83
2023/08/02 07:04:55;;;;;;;5.10;2.50;;;;;;;-145.69;64.45;52000.81;5091260;28;20221;-82
2023/08/02 07:07:22;;;;;;;7.40;2.17;;;;;;;-145.69;64.56;52020.59;5091298;28;20190;-82
2023/08/02 07:09:49;;;;;;;3.08;2.03;;;;;;;-145.69;64.41;52006.75;5092208;28;20561;-81
2023/08/02 07:12:16;;;;;;;5.18;2.25;;;;;;;-145.69;64.46;52004.75;5092113;28;20660;-82
2023/08/02 07:14:44;;;;;;;3.67;2.30;;;;;;;-145.69;63.86;51977.03;5093688;28;20291;-83
2023/08/02 07:17:11;;;;;;;4.20;2.35;;;;;;;-145.69;65.02;52000.81;5096652;28;20198;-82
2023/08/02 07:19:37;;;;;;;6.32;1.85;;;;;;;-145.69;65.60;52008.72;5097145;28;20216;-81
2023/08/02 07:22:06;;;;;;;3.65;2.10;;;;;;;-145.69;65.57;52016.66;5096734;28;20240;-81
2023/08/02 07:24:32;;;;;;;4.00;2.30;;;;;;;-145.69;65.52;52020.59;5096620;28;20225;-82
2023/08/02 07:27:04;;;;;;;4.05;2.35;;;;;;;-145.69;66.68;52020.59;5097293;28;20198;-82
2023/08/02 07:29:42;;;;;;;3.30;2.00;;;;;;;-145.69;64.94;51996.84;5097002;28;20275;-84
2023/08/02 07:32:10;;;;;;;3.38;2.13;;;;;;;-145.69;66.76;52036.44;5096110;28;20212;-82
2023/08/02 07:34:37;;;;;;;4.88;2.28;;;;;;;-145.69;68.21;52032.47;5096702;28;20198;-82
2023/08/02 07:37:03;;;;;;;4.22;2.17;;;;;;;-145.69;68.13;52014.66;5095908;28;20198;-82
2023/08/02 07:39:36;;;;;;;4.35;2.13;;;;;;;-145.69;67.00;52040.41;5095995;28;20202;-81
2023/08/02 07:42:03;;;;;;;3.92;2.13;;;;;;;-145.69;67.38;52048.31;5095208;28;20259;-84
2023/08/02 07:47:12;;;;;;;3.00;1.90;;;;;;;-145.69;66.83;52002.78;5094916;28;20576;-81
2023/08/02 07:49:38;;;;;;;4.15;2.17;;;;;;;-145.69;67.49;52050.31;5096551;28;20205;-82
2023/08/02 07:52:08;;;;;;;3.15;1.98;;;;;;;-145.69;66.82;52030.50;5095973;28;20193;-82
2023/08/02 07:54:35;;;;;;;2.63;1.80;;;;;;;-145.69;66.77;52044.38;5095762;28;20198;-83
2023/08/02 07:57:02;;;;;;;2.83;1.80;;;;;;;-145.69;67.58;52022.59;5095767;28;20198;-81
2023/08/02 07:59:29;;;;;;;3.58;1.95;;;;;;;-145.69;67.80;52064.16;5095578;28;20281;-82
2023/08/02 08:01:55;;;;;;;4.35;2.03;;;;;;;-145.69;68.32;52062.19;5095265;28;20565;-81
2023/08/02 08:04:22;;;;;;;3.88;2.00;;;;;;;-145.69;68.80;52056.25;5095480;28;20253;-85
2023/08/02 08:06:48;;;;;;;5.18;2.63;;;;;;;-145.69;69.81;52087.94;5095732;28;20194;-82
2023/08/02 08:09:23;;;;;;;4.47;2.33;;;;;;;-145.69;69.38;52044.38;5095713;28;20233;-86
2023/08/02 08:11:51;;;;;;;4.25;2.38;;;;;;;-145.69;70.25;52034.47;5096731;28;20219;-83
2023/08/02 08:14:18;;;;;;;4.82;2.75;;;;;;;-145.69;70.06;52068.13;5096659;28;20600;-82
2023/08/02 08:16:44;;;;;;;5.18;3.10;;;;;;;-145.69;70.46;52064.16;5095420;28;20218;-85
2023/08/02 08:19:12;;;;;;;4.28;2.97;;;;;;;-145.69;71.05;52032.47;5096163;28;20232;-83
2023/08/02 08:21:39;;;;;;;3.58;2.75;;;;;;;-145.69;70.62;52020.59;5095887;28;20202;-81
2023/08/02 08:24:13;;;;;;;5.07;2.85;;;;;;;-145.69;70.55;52030.50;5096266;28;20596;-81
2023/08/02 08:26:39;;;;;;;4.78;3.22;;;;;;;-145.69;70.80;52020.59;5095279;28;20202;-84
2023/08/02 08:29:07;;;;;;;5.68;2.95;;;;;;;-145.69;69.17;52030.50;5094340;28;20202;-83
2023/08/02 08:31:34;;;;;;;4.90;3.00;;;;;;;-145.69;68.47;52044.38;5095431;28;20194;-83
2023/08/02 08:34:00;;;;;;;6.72;3.35;;;;;;;-145.69;67.87;52044.38;5095696;28;20194;-83
2023/08/02 08:36:29;;;;;;;4.32;2.88;;;;;;;-145.69;67.67;52024.56;5095217;28;20285;-82
2023/08/02 08:38:59;;;;;;;4.57;2.50;;;;;;;-145.69;66.96;52028.53;5095571;28;20283;-83
2023/08/02 08:41:25;;;;;;;6.35;3.00;;;;;;;-145.69;66.33;52040.41;5096754;28;20267;-81
2023/08/02 08:43:52;;;;;;;7.88;3.70;;;;;;;-145.69;66.38;52030.50;5088557;28;20206;-81
2023/08/02 08:46:21;;;;;;;4.47;2.65;;;;;;;-145.69;66.07;51998.81;5092991;28;20202;-82
2023/08/02 08:48:49;;;;;;;8.73;3.28;;;;;;;-145.69;65.16;52010.69;5093552;28;20205;-83
2023/08/02 08:51:20;;;;;;;4.05;2.42;;;;;;;-145.69;63.19;52012.69;5093720;28;20201;-82
2023/08/02 08:53:49;;;;;;;5.50;3.22;;;;;;;-145.69;62.19;52006.75;5095190;28;20285;-82
2023/08/02 08:56:18;;;;;;;4.57;2.90;;;;;;;-145.69;60.97;52004.75;5095076;28;20198;-84
2023/08/02 08:58:45;;;;;;;5.15;3.05;;;;;;;-145.69;61.31;51996.84;5096556;28;20198;-84
2023/08/02 09:01:15;;;;;;;9.07;2.85;;;;;;;-145.69;60.66;51984.97;5088142;28;20329;-84
2023/08/02 09:03:45;;;;;;;4.47;2.63;;;;;;;-145.69;59.74;51981.00;5080407;28;20602;-84
2023/08/02 09:06:14;;;;;;;5.80;2.60;;;;;;;-145.69;57.49;51949.31;5096544;28;20316;-84
2023/08/02 09:08:47;;;;;;;5.38;2.88;;;;;;;-145.69;55.74;51961.19;5093918;28;20209;-84
2023/08/02 09:11:15;;;;;;;4.35;2.50;;;;;;;-145.69;54.86;51913.69;5093269;28;20651;-82
2023/08/02 09:13:42;;;;;;;3.92;2.42;;;;;;;-145.69;55.01;51937.44;5094973;28;20190;-83
2023/08/02 09:16:10;;;;;;;4.25;2.50;;;;;;;-145.69;54.00;51935.47;5095662;28;20225;-83
2023/08/02 09:18:39;;;;;;;4.82;2.60;;;;;;;-145.69;54.20;51939.41;5099340;28;20205;-83
2023/08/02 09:21:08;;;;;;;3.33;2.33;;;;;;;-145.69;52.14;51937.44;5096693;28;20237;-85
2023/08/02 09:23:36;;;;;;;3.88;2.30;;;;;;;-145.69;52.71;51935.47;5098337;28;20202;-85
2023/08/02 09:26:15;;;;;;;5.45;2.75;;;;;;;-145.69;50.65;51943.38;5095255;28;20217;-86
2023/08/02 09:28:45;;;;;;;3.80;2.17;;;;;;;-145.69;51.81;51913.69;5095823;28;20198;-87
2023/08/02 09:31:18;;;;;;;4.82;2.42;;;;;;;-145.69;52.37;51901.78;5097000;28;20236;-85
2023/08/02 09:33:54;;;;;;;5.07;2.30;;;;;;;-145.69;51.90;51905.75;5098461;28;20285;-85
2023/08/02 09:36:28;;;;;;;5.30;2.70;;;;;;;-145.69;51.33;51949.31;5096582;28;20202;-84
2023/08/02 09:39:03;;;;;;;4.18;2.58;;;;;;;-145.69;51.89;51947.34;5096024;28;20205;-86
2023/08/02 09:41:30;;;;;;;3.67;2.30;;;;;;;-145.69;54.59;51949.31;5094549;28;20194;-84
2023/08/02 09:43:57;;;;;;;4.22;2.22;;;;;;;-145.69;55.82;51963.19;5098833;28;20304;-84
2023/08/02 09:46:27;;;;;;;4.75;2.60;;;;;;;-145.69;54.76;51969.13;5096371;28;20218;-84
2023/08/02 09:48:53;;;;;;;3.83;2.50;;;;;;;-145.69;55.16;51923.56;5097919;28;20198;-85
2023/08/02 09:51:21;;;;;;;3.45;2.50;;;;;;;-145.69;53.56;51943.38;5094797;28;20208;-85
2023/08/02 09:53:58;;;;;;;4.22;2.20;;;;;;;-145.69;53.75;51919.63;5094737;28;20640;-85
2023/08/02 09:56:25;;;;;;;3.88;2.63;;;;;;;-145.69;54.24;51933.47;5095308;28;20205;-83
2023/08/02 09:58:56;;;;;;;3.45;2.25;;;;;;;-145.69;55.57;51945.34;5094892;28;20281;-86
2023/08/02 10:01:26;;;;;;;4.15;2.53;;;;;;;-145.69;55.92;51941.41;5094874;28;20285;-82
2023/08/02 10:03:56;;;;;;;4.43;2.53;;;;;;;-145.69;55.82;51937.44;5094703;28;20206;-84
2023/08/02 10:06:28;;;;;;;5.45;2.67;;;;;;;-145.69;56.20;51961.19;5093781;28;20582;-84
2023/08/02 10:09:02;;;;;;;5.82;2.72;;;;;;;-145.69;54.46;51945.34;5093218;28;20197;-85
2023/08/02 10:11:30;;;;;;;6.80;3.05;;;;;;;-145.69;53.77;51925.56;5093567;28;20288;-85
2023/08/02 10:14:01;;;;;;;3.88;2.53;;;;;;;-145.69;53.54;51913.69;5093963;28;20202;-84
2023/08/02 10:16:28;;;;;;;3.88;2.35;;;;;;;-145.69;51.81;51893.88;5094879;28;20226;-85
2023/08/02 10:18:55;;;;;;;3.20;1.92;;;;;;;-145.69;48.60;51907.72;5096258;28;20285;-83
2023/08/02 10:21:22;;;;;;;3.58;2.22;;;;;;;-145.69;47.94;51933.47;5093735;28;20190;-84
2023/08/02 10:23:52;;;;;;;3.72;2.15;;;;;;;-145.69;48.04;51901.78;5093246;28;20202;-84
2023/08/02 10:26:22;;;;;;;4.40;2.17;;;;;;;-145.69;47.53;51919.63;5094091;28;20226;-83
2023/08/02 10:28:52;;;;;;;3.92;2.17;;;;;;;-145.69;47.12;51913.69;5094372;28;20194;-84
2023/08/02 10:31:20;;;;;;;3.97;2.38;;;;;;;-145.69;48.00;51878.03;5093543;28;20203;-86
2023/08/02 10:33:47;;;;;;;6.32;2.10;;;;;;;-145.69;47.32;51885.94;5093708;28;20202;-85
2023/08/02 10:36:13;;;;;;;3.55;2.10;;;;;;;-145.69;49.38;51901.78;5093777;28;20206;-86
2023/08/02 10:38:48;;;;;;;7.05;2.50;;;;;;;-145.69;50.63;51878.03;5094468;28;20202;-86
2023/08/02 10:41:16;;;;;;;3.00;2.00;;;;;;;-145.69;50.29;51874.06;5094701;28;20706;-85
2023/08/02 10:44:13;;;;;;;4.57;2.60;;;;;;;-145.69;48.63;51889.91;5094153;28;20228;-86
2023/08/02 10:46:40;;;;;;;5.10;2.15;;;;;;;-145.69;48.95;51893.88;5078434;28;20688;-85
2023/08/02 10:49:41;;;;;;;3.50;2.10;;;;;;;-145.69;46.13;51866.16;5092524;28;20212;-86
2023/08/02 10:52:23;;;;;;;3.50;2.17;;;;;;;-145.69;45.98;51889.91;5092685;28;20226;-85
2023/08/02 10:55:04;;;;;;;3.03;2.05;;;;;;;-145.69;45.88;51917.63;5090844;28;20568;-84
2023/08/02 10:57:30;;;;;;;3.22;1.92;;;;;;;-145.69;47.18;51872.09;5093292;28;20197;-83
2023/08/02 11:00:14;;;;;;;3.90;2.22;;;;;;;-145.69;48.24;51895.84;5092905;28;20310;-84
2023/08/02 11:02:46;;;;;;;4.18;2.13;;;;;;;-145.69;46.05;51868.13;5093418;28;20197;-84
2023/08/02 11:05:16;;;;;;;4.15;2.13;;;;;;;-145.69;46.78;51866.16;5092811;28;20221;-84
2023/08/02 11:07:44;;;;;;;3.40;2.20;;;;;;;-145.69;47.63;51862.19;5092347;28;20248;-84
2023/08/02 11:10:13;;;;;;;3.58;2.10;;;;;;;-145.69;47.02;51878.03;5092753;28;20202;-83
2023/08/02 11:12:40;;;;;;;4.63;2.33;;;;;;;-145.69;48.02;51905.75;5092489;28;20313;-84
2023/08/02 11:15:17;;;;;;;3.33;2.25;;;;;;;-145.69;49.01;51897.84;5092796;28;20234;-85
2023/08/02 11:17:44;;;;;;;4.03;2.47;;;;;;;-145.69;47.99;51925.56;5092755;28;20193;-85
2023/08/02 11:20:37;;;;;;;5.78;2.00;;;;;;;-145.69;48.40;51887.94;5092224;28;20544;-85
2023/08/02 11:23:03;;;;;;;4.65;2.17;;;;;;;-145.69;49.96;51901.78;5089157;28;20522;-85
2023/08/02 11:25:30;;;;;;;5.50;2.00;;;;;;;-145.69;50.67;51917.63;5091829;28;20225;-82
2023/08/02 11:28:03;;;;;;;3.67;2.20;;;;;;;-145.69;49.25;51905.75;5092371;28;20667;-85